PWSweather.com
Personal Weather Stations
Station Observations

YeovilGB

Lat: 50.949, Lon: -2.627

Elevation: 70

Station Type: Vantage Pro

http://www.yeovil-weather.me.uk/

High Low Average
Temperature 45.0°F7.2°C 39.3°F4.1°C 42.6°F5.9°C
Dew Point 42.8°F6.0°C 37.7°F3.2°C 40.4°F4.7°C
Winds 8.1 mph 13.0 kmh Calm Calm 2.0 mph NW3.2 kmh NW
Wind Gusts 16.1 mph25.9 kmh -- 6.0 mph9.7 kmh
Humidity 95% 87% 92%
Pressure 29.74 in1007.1 mb 29.63 in1003.4 mb -
Precipitation 0.09 in2.3 mm - -
Hour Temp Dew Point Humidity Winds Wind Gusts Pressure Precip Precip Rate Daily Precip Total
12:00 AM 40.4°F4.7°C 38.8°F3.8°C 94% 3.5 mph N5.6 kmh N 5.8 mph9.3 kmh 29.66 in1004.4 mb - 0.00 in0.0 mm 0.00 in0.0 mm
12:10 AM 40.5°F4.7°C 38.9°F3.8°C 94% Calm Calm 5.8 mph9.3 kmh 29.66 in1004.4 mb - 0.00 in0.0 mm 0.00 in0.0 mm
12:20 AM 40.5°F4.7°C 38.9°F3.8°C 94% 1.2 mph N1.9 kmh N 4.6 mph7.4 kmh 29.66 in1004.4 mb - 0.00 in0.0 mm 0.00 in0.0 mm
12:30 AM 40.5°F4.7°C 38.9°F3.8°C 94% 1.2 mph N1.9 kmh N 4.6 mph7.4 kmh 29.66 in1004.4 mb - 0.00 in0.0 mm 0.00 in0.0 mm
12:40 AM 40.5°F4.7°C 38.9°F3.8°C 94% Calm Calm 3.5 mph5.6 kmh 29.67 in1004.7 mb - 0.00 in0.0 mm 0.00 in0.0 mm
12:50 AM 40.5°F4.7°C 38.9°F3.8°C 94% Calm Calm 3.5 mph5.6 kmh 29.66 in1004.4 mb - 0.00 in0.0 mm 0.00 in0.0 mm
01:00 AM 40.5°F4.7°C 38.9°F3.8°C 94% Calm Calm 3.5 mph5.6 kmh 29.67 in1004.7 mb - 0.00 in0.0 mm 0.00 in0.0 mm
01:10 AM 40.5°F4.7°C 38.9°F3.8°C 94% 1.2 mph N1.9 kmh N 5.8 mph9.3 kmh 29.67 in1004.7 mb - 0.00 in0.0 mm 0.00 in0.0 mm
01:20 AM 40.5°F4.7°C 38.9°F3.8°C 94% 2.3 mph N3.7 kmh N 5.8 mph9.3 kmh 29.67 in1004.7 mb - 0.00 in0.0 mm 0.00 in0.0 mm
01:30 AM 40.5°F4.7°C 38.6°F3.7°C 93% 1.2 mph NW1.9 kmh NW -- 29.67 in1004.7 mb - 0.00 in0.0 mm 0.00 in0.0 mm
01:40 AM 40.6°F4.8°C 38.7°F3.7°C 93% 1.2 mph N1.9 kmh N 3.5 mph5.6 kmh 29.68 in1005.1 mb - 0.00 in0.0 mm 0.00 in0.0 mm
01:50 AM 40.6°F4.8°C 38.7°F3.7°C 93% 2.3 mph NNW3.7 kmh NNW 6.9 mph11.1 kmh 29.68 in1005.1 mb - 0.00 in0.0 mm 0.00 in0.0 mm
02:00 AM 40.6°F4.8°C 38.7°F3.7°C 93% Calm Calm -- 29.68 in1005.1 mb - 0.00 in0.0 mm 0.00 in0.0 mm
02:10 AM 40.6°F4.8°C 38.7°F3.7°C 93% 1.2 mph NNW1.9 kmh NNW 5.8 mph9.3 kmh 29.68 in1005.1 mb - 0.00 in0.0 mm 0.00 in0.0 mm
02:20 AM 40.5°F4.7°C 38.6°F3.7°C 93% 3.5 mph NNW5.6 kmh NNW 8.1 mph13.0 kmh 29.68 in1005.1 mb - 0.00 in0.0 mm 0.00 in0.0 mm
02:30 AM 40.5°F4.7°C 38.6°F3.7°C 93% 1.2 mph N1.9 kmh N 3.5 mph5.6 kmh 29.68 in1005.1 mb - 0.00 in0.0 mm 0.00 in0.0 mm
02:40 AM 40.4°F4.7°C 38.5°F3.6°C 93% 2.3 mph NNW3.7 kmh NNW 4.6 mph7.4 kmh 29.68 in1005.1 mb - 0.00 in0.0 mm 0.00 in0.0 mm
02:50 AM 40.2°F4.6°C 38.3°F3.5°C 93% 3.5 mph NNW5.6 kmh NNW 5.8 mph9.3 kmh 29.68 in1005.1 mb - 0.00 in0.0 mm 0.00 in0.0 mm
03:00 AM 40.1°F4.5°C 38.2°F3.4°C 93% 1.2 mph NNW1.9 kmh NNW 5.8 mph9.3 kmh 29.68 in1005.1 mb - 0.00 in0.0 mm 0.00 in0.0 mm
03:10 AM 40.0°F4.4°C 38.1°F3.4°C 93% 1.2 mph NW1.9 kmh NW -- 29.68 in1005.1 mb - 0.00 in0.0 mm 0.00 in0.0 mm
03:20 AM 39.9°F4.4°C 38.3°F3.5°C 94% 1.2 mph NNW1.9 kmh NNW 5.8 mph9.3 kmh 29.68 in1005.1 mb - 0.00 in0.0 mm 0.00 in0.0 mm
03:30 AM 40.0°F4.4°C 38.4°F3.6°C 94% 1.2 mph NNW1.9 kmh NNW 5.8 mph9.3 kmh 29.68 in1005.1 mb - 0.00 in0.0 mm 0.00 in0.0 mm
03:40 AM 39.9°F4.4°C 38.3°F3.5°C 94% 2.3 mph NNW3.7 kmh NNW 5.8 mph9.3 kmh 29.68 in1005.1 mb - 0.00 in0.0 mm 0.00 in0.0 mm
03:50 AM 39.8°F4.3°C 38.2°F3.4°C 94% 1.2 mph N1.9 kmh N 5.8 mph9.3 kmh 29.69 in1005.4 mb - 0.00 in0.0 mm 0.00 in0.0 mm
04:00 AM 39.7°F4.3°C 38.1°F3.4°C 94% 1.2 mph N1.9 kmh N 4.6 mph7.4 kmh 29.69 in1005.4 mb - 0.00 in0.0 mm 0.00 in0.0 mm
04:10 AM 39.7°F4.3°C 38.1°F3.4°C 94% 1.2 mph N1.9 kmh N 1.2 mph1.9 kmh 29.69 in1005.4 mb - 0.00 in0.0 mm 0.00 in0.0 mm
04:20 AM 39.5°F4.2°C 37.9°F3.3°C 94% 1.2 mph NNW1.9 kmh NNW -- 29.69 in1005.4 mb - 0.00 in0.0 mm 0.00 in0.0 mm
04:30 AM 39.3°F4.1°C 37.7°F3.2°C 94% Calm Calm 2.3 mph3.7 kmh 29.69 in1005.4 mb - 0.00 in0.0 mm 0.00 in0.0 mm
04:40 AM 39.4°F4.1°C 37.8°F3.2°C 94% 2.3 mph N3.7 kmh N 10.4 mph16.7 kmh 29.70 in1005.8 mb - 0.00 in0.0 mm 0.00 in0.0 mm
04:50 AM 39.6°F4.2°C 38.2°F3.4°C 95% 1.2 mph N1.9 kmh N 3.5 mph5.6 kmh 29.70 in1005.8 mb - 0.00 in0.0 mm 0.00 in0.0 mm
05:00 AM 39.7°F4.3°C 38.4°F3.6°C 95% 2.3 mph N3.7 kmh N 2.3 mph3.7 kmh 29.70 in1005.8 mb - 0.00 in0.0 mm 0.00 in0.0 mm
05:10 AM 39.8°F4.3°C 38.5°F3.6°C 95% Calm Calm -- 29.70 in1005.8 mb - 0.00 in0.0 mm 0.00 in0.0 mm
05:20 AM 39.8°F4.3°C 38.5°F3.6°C 95% 1.2 mph NNW1.9 kmh NNW 4.6 mph7.4 kmh 29.70 in1005.8 mb - 0.00 in0.0 mm 0.00 in0.0 mm
05:30 AM 39.9°F4.4°C 38.3°F3.5°C 94% Calm Calm 2.3 mph3.7 kmh 29.70 in1005.8 mb - 0.00 in0.0 mm 0.00 in0.0 mm
05:40 AM 40.0°F4.4°C 38.4°F3.6°C 94% Calm Calm -- 29.70 in1005.8 mb - 0.00 in0.0 mm 0.00 in0.0 mm
05:50 AM 40.0°F4.4°C 38.4°F3.6°C 94% Calm Calm -- 29.70 in1005.8 mb - 0.00 in0.0 mm 0.00 in0.0 mm
06:00 AM 40.0°F4.4°C 38.4°F3.6°C 94% Calm Calm -- 29.70 in1005.8 mb - 0.00 in0.0 mm 0.00 in0.0 mm
06:10 AM 40.0°F4.4°C 38.4°F3.6°C 94% Calm Calm -- 29.70 in1005.8 mb - 0.00 in0.0 mm 0.00 in0.0 mm
06:20 AM 40.0°F4.4°C 38.4°F3.6°C 94% Calm Calm 2.3 mph3.7 kmh 29.71 in1006.1 mb - 0.00 in0.0 mm 0.00 in0.0 mm
06:30 AM 40.0°F4.4°C 38.4°F3.6°C 94% Calm Calm -- 29.71 in1006.1 mb - 0.00 in0.0 mm 0.00 in0.0 mm
06:40 AM 39.9°F4.4°C 38.3°F3.5°C 94% Calm Calm 5.8 mph9.3 kmh 29.71 in1006.1 mb - 0.00 in0.0 mm 0.00 in0.0 mm
06:50 AM 39.9°F4.4°C 38.3°F3.5°C 94% Calm Calm 3.5 mph5.6 kmh 29.72 in1006.4 mb - 0.00 in0.0 mm 0.00 in0.0 mm
07:00 AM 40.0°F4.4°C 38.4°F3.6°C 94% Calm Calm -- 29.72 in1006.4 mb - 0.00 in0.0 mm 0.00 in0.0 mm
07:10 AM 40.1°F4.5°C 38.5°F3.6°C 94% 2.3 mph NW3.7 kmh NW 4.6 mph7.4 kmh 29.72 in1006.4 mb - 0.00 in0.0 mm 0.00 in0.0 mm
07:20 AM 40.2°F4.6°C 38.6°F3.7°C 94% 2.3 mph NW3.7 kmh NW 4.6 mph7.4 kmh 29.72 in1006.4 mb - 0.00 in0.0 mm 0.00 in0.0 mm
07:30 AM 40.3°F4.6°C 38.7°F3.7°C 94% 1.2 mph NNW1.9 kmh NNW 4.6 mph7.4 kmh 29.72 in1006.4 mb - 0.00 in0.0 mm 0.00 in0.0 mm
07:40 AM 40.5°F4.7°C 38.9°F3.8°C 94% 1.2 mph N1.9 kmh N 6.9 mph11.1 kmh 29.72 in1006.4 mb - 0.00 in0.0 mm 0.00 in0.0 mm
07:50 AM 40.6°F4.8°C 39.0°F3.9°C 94% 1.2 mph N1.9 kmh N 4.6 mph7.4 kmh 29.72 in1006.4 mb - 0.00 in0.0 mm 0.00 in0.0 mm
08:00 AM 40.7°F4.8°C 39.1°F3.9°C 94% Calm Calm 11.5 mph18.5 kmh 29.72 in1006.4 mb - 0.00 in0.0 mm 0.00 in0.0 mm
08:10 AM 40.8°F4.9°C 39.2°F4.0°C 94% 1.2 mph NW1.9 kmh NW 5.8 mph9.3 kmh 29.72 in1006.4 mb - 0.00 in0.0 mm 0.00 in0.0 mm
08:20 AM 40.9°F4.9°C 39.3°F4.1°C 94% 2.3 mph NNW3.7 kmh NNW 5.8 mph9.3 kmh 29.72 in1006.4 mb - 0.00 in0.0 mm 0.00 in0.0 mm
08:30 AM 40.9°F4.9°C 39.0°F3.9°C 93% 1.2 mph N1.9 kmh N 3.5 mph5.6 kmh 29.72 in1006.4 mb - 0.00 in0.0 mm 0.00 in0.0 mm
08:40 AM 40.9°F4.9°C 39.0°F3.9°C 93% 1.2 mph NNW1.9 kmh NNW 5.8 mph9.3 kmh 29.72 in1006.4 mb - 0.00 in0.0 mm 0.00 in0.0 mm
08:50 AM 41.1°F5.1°C 39.2°F4.0°C 93% 1.2 mph N1.9 kmh N 4.6 mph7.4 kmh 29.73 in1006.8 mb - 0.00 in0.0 mm 0.00 in0.0 mm
09:00 AM 41.2°F5.1°C 39.3°F4.1°C 93% 3.5 mph N5.6 kmh N 4.6 mph7.4 kmh 29.73 in1006.8 mb - 0.00 in0.0 mm 0.00 in0.0 mm
09:10 AM 41.4°F5.2°C 39.3°F4.1°C 92% Calm Calm 1.2 mph1.9 kmh 29.73 in1006.8 mb - 0.00 in0.0 mm 0.00 in0.0 mm
09:20 AM 41.7°F5.4°C 39.8°F4.3°C 93% Calm Calm 4.6 mph7.4 kmh 29.73 in1006.8 mb - 0.00 in0.0 mm 0.00 in0.0 mm
09:30 AM 42.0°F5.6°C 39.8°F4.3°C 92% 1.2 mph N1.9 kmh N 3.5 mph5.6 kmh 29.73 in1006.8 mb - 0.00 in0.0 mm 0.00 in0.0 mm
09:40 AM 42.2°F5.7°C 40.0°F4.4°C 92% 1.2 mph NNW1.9 kmh NNW 4.6 mph7.4 kmh 29.73 in1006.8 mb - 0.00 in0.0 mm 0.00 in0.0 mm
09:50 AM 42.4°F5.8°C 40.2°F4.6°C 92% 1.2 mph NNW1.9 kmh NNW 8.1 mph13.0 kmh 29.74 in1007.1 mb - 0.00 in0.0 mm 0.00 in0.0 mm
10:00 AM 42.6°F5.9°C 40.2°F4.6°C 91% 1.2 mph N1.9 kmh N 3.5 mph5.6 kmh 29.74 in1007.1 mb - 0.00 in0.0 mm 0.00 in0.0 mm
10:10 AM 42.8°F6.0°C 40.4°F4.7°C 91% Calm Calm 5.8 mph9.3 kmh 29.74 in1007.1 mb - 0.00 in0.0 mm 0.00 in0.0 mm
10:20 AM 42.9°F6.1°C 40.2°F4.6°C 90% 1.2 mph NNW1.9 kmh NNW 3.5 mph5.6 kmh 29.74 in1007.1 mb - 0.00 in0.0 mm 0.00 in0.0 mm
10:30 AM 43.1°F6.2°C 40.4°F4.7°C 90% 2.3 mph NNW3.7 kmh NNW 3.5 mph5.6 kmh 29.74 in1007.1 mb - 0.00 in0.0 mm 0.00 in0.0 mm
10:40 AM 43.2°F6.2°C 40.2°F4.6°C 89% 2.3 mph NNW3.7 kmh NNW 6.9 mph11.1 kmh 29.74 in1007.1 mb - 0.00 in0.0 mm 0.00 in0.0 mm
10:50 AM 43.4°F6.3°C 40.4°F4.7°C 89% 1.2 mph NNW1.9 kmh NNW 5.8 mph9.3 kmh 29.73 in1006.8 mb - 0.00 in0.0 mm 0.00 in0.0 mm
11:00 AM 43.6°F6.4°C 40.6°F4.8°C 89% 2.3 mph NNW3.7 kmh NNW 8.1 mph13.0 kmh 29.73 in1006.8 mb - 0.00 in0.0 mm 0.00 in0.0 mm
11:10 AM 43.8°F6.6°C 40.8°F4.9°C 89% 2.3 mph N3.7 kmh N 6.9 mph11.1 kmh 29.73 in1006.8 mb - 0.00 in0.0 mm 0.00 in0.0 mm
11:20 AM 44.0°F6.7°C 41.0°F5.0°C 89% 2.3 mph NNW3.7 kmh NNW 9.2 mph14.8 kmh 29.72 in1006.4 mb - 0.00 in0.0 mm 0.00 in0.0 mm
11:30 AM 44.1°F6.7°C 41.1°F5.1°C 89% 2.3 mph N3.7 kmh N 6.9 mph11.1 kmh 29.72 in1006.4 mb - 0.00 in0.0 mm 0.00 in0.0 mm
11:40 AM 44.1°F6.7°C 41.1°F5.1°C 89% 2.3 mph NNW3.7 kmh NNW 8.1 mph13.0 kmh 29.72 in1006.4 mb - 0.00 in0.0 mm 0.00 in0.0 mm
11:50 AM 44.1°F6.7°C 41.0°F5.0°C 89% 3.5 mph NNW5.6 kmh NNW 9.2 mph14.8 kmh 29.72 in1006.4 mb - 0.00 in0.0 mm 0.00 in0.0 mm
12:00 PM 44.1°F6.7°C 41.4°F5.2°C 90% 2.3 mph NNW3.7 kmh NNW 3.5 mph5.6 kmh 29.72 in1006.4 mb - 0.00 in0.0 mm 0.00 in0.0 mm
12:10 PM 44.1°F6.7°C 41.7°F5.4°C 91% 2.3 mph NW3.7 kmh NW 9.2 mph14.8 kmh 29.71 in1006.1 mb - 0.00 in0.0 mm 0.00 in0.0 mm
12:20 PM 44.0°F6.7°C 41.5°F5.3°C 91% 1.2 mph NW1.9 kmh NW 2.3 mph3.7 kmh 29.71 in1006.1 mb - 0.00 in0.0 mm 0.00 in0.0 mm
12:30 PM 43.8°F6.6°C 41.6°F5.3°C 92% 4.6 mph NW7.4 kmh NW 8.1 mph13.0 kmh 29.71 in1006.1 mb - 0.00 in0.0 mm 0.00 in0.0 mm
12:40 PM 43.8°F6.6°C 41.6°F5.3°C 92% 1.2 mph NW1.9 kmh NW 3.5 mph5.6 kmh 29.71 in1006.1 mb - 0.00 in0.0 mm 0.00 in0.0 mm
12:50 PM 43.8°F6.6°C 41.6°F5.3°C 92% 1.2 mph NNW1.9 kmh NNW 2.3 mph3.7 kmh 29.70 in1005.8 mb - 0.01 in0.3 mm 0.01 in0.3 mm
01:00 PM 43.9°F6.6°C 42.0°F5.6°C 93% 1.2 mph NW1.9 kmh NW 4.6 mph7.4 kmh 29.70 in1005.8 mb - 0.01 in0.3 mm 0.01 in0.3 mm
01:10 PM 44.0°F6.7°C 42.1°F5.6°C 93% Calm Calm 5.8 mph9.3 kmh 29.70 in1005.8 mb - 0.00 in0.0 mm 0.01 in0.3 mm
01:20 PM 44.2°F6.8°C 42.3°F5.7°C 93% Calm Calm -- 29.70 in1005.8 mb - 0.01 in0.3 mm 0.02 in0.5 mm
01:30 PM 44.4°F6.9°C 42.5°F5.8°C 93% 1.2 mph N1.9 kmh N 3.5 mph5.6 kmh 29.70 in1005.8 mb - 0.00 in0.0 mm 0.02 in0.5 mm
01:40 PM 44.4°F6.9°C 42.5°F5.8°C 93% 1.2 mph NNW1.9 kmh NNW 5.8 mph9.3 kmh 29.69 in1005.4 mb - 0.00 in0.0 mm 0.02 in0.5 mm
01:50 PM 44.5°F6.9°C 42.6°F5.9°C 93% Calm Calm 8.1 mph13.0 kmh 29.69 in1005.4 mb - 0.00 in0.0 mm 0.02 in0.5 mm
02:00 PM 44.6°F7.0°C 42.7°F5.9°C 93% 2.3 mph NW3.7 kmh NW 9.2 mph14.8 kmh 29.68 in1005.1 mb - 0.00 in0.0 mm 0.02 in0.5 mm
02:10 PM 44.7°F7.1°C 42.8°F6.0°C 93% 4.6 mph NW7.4 kmh NW 8.1 mph13.0 kmh 29.68 in1005.1 mb - 0.00 in0.0 mm 0.02 in0.5 mm
02:20 PM 44.7°F7.1°C 42.8°F6.0°C 93% 4.6 mph NNW7.4 kmh NNW 10.4 mph16.7 kmh 29.67 in1004.7 mb - 0.00 in0.0 mm 0.02 in0.5 mm
02:30 PM 44.8°F7.1°C 42.6°F5.9°C 92% 2.3 mph NNW3.7 kmh NNW 5.8 mph9.3 kmh 29.67 in1004.7 mb - 0.00 in0.0 mm 0.02 in0.5 mm
02:40 PM 44.9°F7.2°C 42.7°F5.9°C 92% 5.8 mph NNW9.3 kmh NNW 10.4 mph16.7 kmh 29.67 in1004.7 mb - 0.00 in0.0 mm 0.02 in0.5 mm
02:50 PM 44.9°F7.2°C 42.7°F5.9°C 92% 1.2 mph NW1.9 kmh NW 5.8 mph9.3 kmh 29.68 in1005.1 mb - 0.00 in0.0 mm 0.02 in0.5 mm
03:00 PM 45.0°F7.2°C 42.5°F5.8°C 91% 2.3 mph NNW3.7 kmh NNW 5.8 mph9.3 kmh 29.68 in1005.1 mb - 0.00 in0.0 mm 0.02 in0.5 mm
03:10 PM 45.0°F7.2°C 42.5°F5.8°C 91% 1.2 mph NNW1.9 kmh NNW -- 29.68 in1005.1 mb - 0.00 in0.0 mm 0.02 in0.5 mm
03:20 PM 45.0°F7.2°C 42.5°F5.8°C 91% 1.2 mph NW1.9 kmh NW 3.5 mph5.6 kmh 29.68 in1005.1 mb - 0.00 in0.0 mm 0.02 in0.5 mm
03:30 PM 44.9°F7.2°C 42.5°F5.8°C 91% 2.3 mph NNW3.7 kmh NNW 11.5 mph18.5 kmh 29.69 in1005.4 mb - 0.00 in0.0 mm 0.02 in0.5 mm
03:40 PM 44.9°F7.2°C 42.4°F5.8°C 91% 4.6 mph NNW7.4 kmh NNW 9.2 mph14.8 kmh 29.68 in1005.1 mb - 0.00 in0.0 mm 0.02 in0.5 mm
03:50 PM 44.8°F7.1°C 42.3°F5.7°C 91% 1.2 mph NW1.9 kmh NW 5.8 mph9.3 kmh 29.68 in1005.1 mb - 0.00 in0.0 mm 0.02 in0.5 mm
04:00 PM 44.8°F7.1°C 42.3°F5.7°C 91% 3.5 mph NNW5.6 kmh NNW 8.1 mph13.0 kmh 29.67 in1004.7 mb - 0.00 in0.0 mm 0.02 in0.5 mm
04:10 PM 44.8°F7.1°C 42.0°F5.6°C 90% 3.5 mph NNW5.6 kmh NNW 9.2 mph14.8 kmh 29.68 in1005.1 mb - 0.00 in0.0 mm 0.02 in0.5 mm
04:20 PM 44.8°F7.1°C 42.1°F5.6°C 90% 4.6 mph NW7.4 kmh NW 11.5 mph18.5 kmh 29.68 in1005.1 mb - 0.00 in0.0 mm 0.02 in0.5 mm
04:30 PM 44.9°F7.2°C 42.1°F5.6°C 90% 3.5 mph NNW5.6 kmh NNW 8.1 mph13.0 kmh 29.68 in1005.1 mb - 0.00 in0.0 mm 0.02 in0.5 mm
04:40 PM 44.9°F7.2°C 42.2°F5.7°C 90% 2.3 mph NNW3.7 kmh NNW 9.2 mph14.8 kmh 29.67 in1004.7 mb - 0.00 in0.0 mm 0.02 in0.5 mm
04:50 PM 45.0°F7.2°C 42.2°F5.7°C 90% 4.6 mph NNW7.4 kmh NNW 8.1 mph13.0 kmh 29.68 in1005.1 mb - 0.00 in0.0 mm 0.02 in0.5 mm
05:00 PM 45.0°F7.2°C 42.2°F5.7°C 90% 1.2 mph NNW1.9 kmh NNW 3.5 mph5.6 kmh 29.68 in1005.1 mb - 0.00 in0.0 mm 0.02 in0.5 mm
05:10 PM 44.9°F7.2°C 42.4°F5.8°C 91% Calm Calm -- 29.68 in1005.1 mb - 0.01 in0.3 mm 0.02 in0.5 mm
05:20 PM 44.7°F7.1°C 42.5°F5.8°C 92% Calm Calm -- 29.68 in1005.1 mb - 0.02 in0.5 mm 0.04 in1.0 mm
05:30 PM 44.6°F7.0°C 42.4°F5.8°C 92% Calm Calm -- 29.68 in1005.1 mb - 0.01 in0.3 mm 0.04 in1.0 mm
05:40 PM 44.5°F6.9°C 42.6°F5.9°C 93% Calm Calm -- 29.68 in1005.1 mb - 0.00 in0.0 mm 0.04 in1.0 mm
05:50 PM 44.3°F6.8°C 42.4°F5.8°C 93% 2.3 mph NNE3.7 kmh NNE 16.1 mph25.9 kmh 29.68 in1005.1 mb - 0.02 in0.5 mm 0.06 in1.5 mm
06:00 PM 44.0°F6.7°C 42.1°F5.6°C 93% Calm Calm 4.6 mph7.4 kmh 29.68 in1005.1 mb - 0.00 in0.0 mm 0.06 in1.5 mm
06:10 PM 43.9°F6.6°C 42.1°F5.6°C 93% Calm Calm 3.5 mph5.6 kmh 29.68 in1005.1 mb - 0.00 in0.0 mm 0.06 in1.5 mm
06:20 PM 43.9°F6.6°C 42.0°F5.6°C 93% 6.9 mph NNW11.1 kmh NNW 9.2 mph14.8 kmh 29.68 in1005.1 mb - 0.00 in0.0 mm 0.06 in1.5 mm
06:30 PM 43.9°F6.6°C 41.7°F5.4°C 92% 2.3 mph N3.7 kmh N 6.9 mph11.1 kmh 29.68 in1005.1 mb - 0.00 in0.0 mm 0.06 in1.5 mm
06:40 PM 44.0°F6.7°C 41.8°F5.4°C 92% 2.3 mph NNW3.7 kmh NNW 8.1 mph13.0 kmh 29.68 in1005.1 mb - 0.00 in0.0 mm 0.06 in1.5 mm
06:50 PM 44.2°F6.8°C 41.7°F5.4°C 91% 5.8 mph NNW9.3 kmh NNW 11.5 mph18.5 kmh 29.67 in1004.7 mb - 0.00 in0.0 mm 0.06 in1.5 mm
07:00 PM 44.2°F6.8°C 41.5°F5.3°C 90% Calm Calm -- 29.67 in1004.7 mb - 0.00 in0.0 mm 0.06 in1.5 mm
07:10 PM 44.2°F6.8°C 41.2°F5.1°C 89% 4.6 mph NNW7.4 kmh NNW 8.1 mph13.0 kmh 29.67 in1004.7 mb - 0.00 in0.0 mm 0.06 in1.5 mm
07:20 PM 44.1°F6.7°C 40.8°F4.9°C 88% 2.3 mph NW3.7 kmh NW 9.2 mph14.8 kmh 29.67 in1004.7 mb - 0.00 in0.0 mm 0.06 in1.5 mm
07:30 PM 44.1°F6.7°C 41.1°F5.1°C 89% 6.9 mph NNW11.1 kmh NNW 10.4 mph16.7 kmh 29.67 in1004.7 mb - 0.00 in0.0 mm 0.06 in1.5 mm
07:40 PM 44.2°F6.8°C 41.2°F5.1°C 89% 5.8 mph NNW9.3 kmh NNW 15.0 mph24.1 kmh 29.67 in1004.7 mb - 0.00 in0.0 mm 0.06 in1.5 mm
07:50 PM 44.2°F6.8°C 41.2°F5.1°C 89% 6.9 mph N11.1 kmh N 11.5 mph18.5 kmh 29.67 in1004.7 mb - 0.00 in0.0 mm 0.06 in1.5 mm
08:00 PM 44.3°F6.8°C 41.3°F5.2°C 89% 4.6 mph NNW7.4 kmh NNW 10.4 mph16.7 kmh 29.66 in1004.4 mb - 0.00 in0.0 mm 0.06 in1.5 mm
08:10 PM 44.4°F6.9°C 41.1°F5.1°C 88% 4.6 mph NNW7.4 kmh NNW 10.4 mph16.7 kmh 29.66 in1004.4 mb - 0.00 in0.0 mm 0.06 in1.5 mm
08:20 PM 44.5°F6.9°C 41.2°F5.1°C 88% 5.8 mph NW9.3 kmh NW 11.5 mph18.5 kmh 29.66 in1004.4 mb - 0.00 in0.0 mm 0.06 in1.5 mm
08:30 PM 44.4°F6.9°C 40.8°F4.9°C 87% 4.6 mph NNW7.4 kmh NNW 10.4 mph16.7 kmh 29.65 in1004.1 mb - 0.00 in0.0 mm 0.06 in1.5 mm
08:40 PM 44.4°F6.9°C 40.8°F4.9°C 87% 3.5 mph NW5.6 kmh NW 6.9 mph11.1 kmh 29.66 in1004.4 mb - 0.00 in0.0 mm 0.06 in1.5 mm
08:50 PM 44.4°F6.9°C 40.7°F4.8°C 87% 5.8 mph NNW9.3 kmh NNW 11.5 mph18.5 kmh 29.66 in1004.4 mb - 0.00 in0.0 mm 0.06 in1.5 mm
09:00 PM 44.4°F6.9°C 40.8°F4.9°C 87% 4.6 mph NW7.4 kmh NW 12.7 mph20.4 kmh 29.66 in1004.4 mb - 0.00 in0.0 mm 0.06 in1.5 mm
09:10 PM 44.4°F6.9°C 40.8°F4.9°C 87% 5.8 mph NNW9.3 kmh NNW 9.2 mph14.8 kmh 29.65 in1004.1 mb - 0.00 in0.0 mm 0.06 in1.5 mm
09:20 PM 44.3°F6.8°C 40.7°F4.8°C 87% 4.6 mph NNW7.4 kmh NNW 11.5 mph18.5 kmh 29.65 in1004.1 mb - 0.00 in0.0 mm 0.06 in1.5 mm
09:30 PM 44.3°F6.8°C 40.9°F4.9°C 88% 8.1 mph NW13.0 kmh NW 12.7 mph20.4 kmh 29.65 in1004.1 mb - 0.01 in0.3 mm 0.06 in1.5 mm
09:40 PM 44.1°F6.7°C 41.1°F5.1°C 89% 4.6 mph NNW7.4 kmh NNW 11.5 mph18.5 kmh 29.65 in1004.1 mb - 0.00 in0.0 mm 0.06 in1.5 mm
09:50 PM 44.0°F6.7°C 40.9°F4.9°C 89% 8.1 mph NW13.0 kmh NW 12.7 mph20.4 kmh 29.65 in1004.1 mb - 0.01 in0.3 mm 0.07 in1.8 mm
10:00 PM 43.8°F6.6°C 41.1°F5.1°C 90% 6.9 mph NW11.1 kmh NW 10.4 mph16.7 kmh 29.65 in1004.1 mb - 0.01 in0.3 mm 0.08 in2.0 mm
10:10 PM 43.7°F6.5°C 41.0°F5.0°C 90% 4.6 mph NW7.4 kmh NW 11.5 mph18.5 kmh 29.65 in1004.1 mb - 0.00 in0.0 mm 0.08 in2.0 mm
10:20 PM 43.6°F6.4°C 40.9°F4.9°C 90% 2.3 mph NW3.7 kmh NW 8.1 mph13.0 kmh 29.64 in1003.7 mb - 0.00 in0.0 mm 0.08 in2.0 mm
10:30 PM 43.5°F6.4°C 41.0°F5.0°C 91% 6.9 mph NW11.1 kmh NW 10.4 mph16.7 kmh 29.64 in1003.7 mb - 0.00 in0.0 mm 0.08 in2.0 mm
10:40 PM 43.4°F6.3°C 40.9°F4.9°C 91% 3.5 mph NW5.6 kmh NW 6.9 mph11.1 kmh 29.64 in1003.7 mb - 0.00 in0.0 mm 0.08 in2.0 mm
10:50 PM 43.4°F6.3°C 40.9°F4.9°C 91% 3.5 mph NW5.6 kmh NW 6.9 mph11.1 kmh 29.64 in1003.7 mb - 0.00 in0.0 mm 0.08 in2.0 mm
11:00 PM 43.4°F6.3°C 40.9°F4.9°C 91% 5.8 mph NNW9.3 kmh NNW 6.9 mph11.1 kmh 29.64 in1003.7 mb - 0.00 in0.0 mm 0.08 in2.0 mm
11:10 PM 43.4°F6.3°C 41.0°F5.0°C 91% 3.5 mph NNW5.6 kmh NNW 8.1 mph13.0 kmh 29.64 in1003.7 mb - 0.01 in0.3 mm 0.09 in2.3 mm
11:20 PM 43.5°F6.4°C 41.0°F5.0°C 91% 4.6 mph NNW7.4 kmh NNW 8.1 mph13.0 kmh 29.63 in1003.4 mb - 0.00 in0.0 mm 0.09 in2.3 mm
11:30 PM 43.5°F6.4°C 41.0°F5.0°C 91% 2.3 mph NW3.7 kmh NW 11.5 mph18.5 kmh 29.63 in1003.4 mb - 0.00 in0.0 mm 0.09 in2.3 mm
11:40 PM 43.4°F6.3°C 40.9°F4.9°C 91% 3.5 mph NNW5.6 kmh NNW 11.5 mph18.5 kmh 29.63 in1003.4 mb - 0.00 in0.0 mm 0.09 in2.3 mm
11:50 PM 43.4°F6.3°C 40.9°F4.9°C 91% 2.3 mph NNW3.7 kmh NNW 8.1 mph13.0 kmh 29.63 in1003.4 mb - 0.00 in0.0 mm 0.09 in2.3 mm